Grayslake, Illinois
Current Conditions -  °F | °C
As of 8:55 PM on Monday 20 Oct 2014 (Local Time) from KUGN Reporting Station
Overcast Overcast  
Wind Chill: 51°   Ceiling: 5500
Heat Index: 51°   Visibility: 10mi
Dew Point: 41°   Wind: 5mph
Humidity: 68%   Direction: 310°NW
Pressure: 29.99"   Gusts: NA
Location:  42.34°N, 88.04°W
Report Text: KUGN 210155Z AUTO 31004KT 10SM OVC055 11/05 A2999 RMK AO2 SLP157 T01060050
Loading
Personal Weather Stations






























Interactive Weather Map
Tropical Storm Tracking
New forecast layout! Learn more

10-Day Weather Forecast

Advertisements
Track Severe Weather on mobile